createdAt,value
2019-03-29T00:00:54.030Z,6.66
2019-03-29T00:03:24.920Z,6.68
2019-03-29T00:05:55.886Z,6.75
2019-03-29T00:08:27.003Z,6.85
2019-03-29T00:11:02.434Z,6.93
2019-03-29T00:13:33.575Z,7.00
2019-03-29T00:16:04.530Z,7.08
2019-03-29T00:18:36.120Z,7.11
2019-03-29T00:21:07.271Z,7.18
2019-03-29T00:23:38.288Z,7.24
2019-03-29T00:26:09.148Z,7.30
2019-03-29T00:28:40.216Z,7.32
2019-03-29T00:31:13.952Z,7.36
2019-03-29T00:33:43.772Z,7.39
2019-03-29T00:36:14.706Z,7.41
2019-03-29T00:38:45.686Z,7.42
2019-03-29T00:41:16.608Z,7.42
2019-03-29T00:43:47.629Z,7.46
2019-03-29T00:46:18.565Z,7.44
2019-03-29T00:48:49.645Z,7.42
2019-03-29T00:51:20.646Z,7.36
2019-03-29T00:53:51.499Z,7.25
2019-03-29T00:56:22.509Z,7.18
2019-03-29T00:58:53.567Z,7.11
2019-03-29T01:01:26.029Z,7.04
2019-03-29T01:03:57.153Z,6.98
2019-03-29T01:06:28.420Z,6.98
2019-03-29T01:08:59.281Z,7.05
2019-03-29T01:11:30.525Z,7.16
2019-03-29T01:14:01.512Z,7.26
2019-03-29T01:16:32.537Z,7.28
2019-03-29T01:19:04.025Z,7.23
2019-03-29T01:21:35.068Z,7.15
2019-03-29T01:24:06.285Z,7.07
2019-03-29T01:26:37.183Z,6.97
2019-03-29T01:29:08.151Z,6.81
2019-03-29T01:31:40.975Z,6.76
2019-03-29T01:34:12.169Z,6.66
2019-03-29T01:36:43.219Z,6.56
2019-03-29T01:39:14.151Z,6.42
2019-03-29T01:41:45.077Z,6.30
2019-03-29T01:44:15.964Z,6.29
2019-03-29T01:46:46.949Z,6.30
2019-03-29T01:49:18.117Z,6.24
2019-03-29T01:51:49.132Z,6.22
2019-03-29T01:54:20.181Z,6.21
2019-03-29T01:56:51.181Z,6.17
2019-03-29T01:59:22.140Z,6.06
2019-03-29T02:01:53.309Z,5.97
2019-03-29T02:04:24.306Z,5.99
2019-03-29T02:06:55.388Z,6.01
2019-03-29T02:09:26.307Z,6.09
2019-03-29T02:11:57.362Z,6.05
2019-03-29T02:14:28.264Z,6.07
2019-03-29T02:16:59.224Z,6.04
2019-03-29T02:19:30.286Z,6.04
2019-03-29T02:22:01.341Z,6.04
2019-03-29T02:24:32.302Z,6.03
2019-03-29T02:27:03.256Z,6.08
2019-03-29T02:29:34.327Z,6.02
2019-03-29T02:32:05.390Z,5.95
2019-03-29T02:34:36.382Z,5.92
2019-03-29T02:37:07.450Z,5.88
2019-03-29T02:39:38.626Z,5.83
2019-03-29T02:42:09.590Z,5.83
2019-03-29T02:44:40.613Z,5.78
2019-03-29T02:47:11.716Z,5.71
2019-03-29T02:49:42.663Z,5.65
2019-03-29T02:52:13.767Z,5.64
2019-03-29T02:54:44.813Z,5.66
2019-03-29T02:57:16.064Z,5.74
2019-03-29T02:59:47.149Z,5.88
2019-03-29T03:02:18.119Z,5.98
2019-03-29T03:04:49.192Z,6.08
2019-03-29T03:07:20.122Z,6.20
2019-03-29T03:09:51.116Z,6.35
2019-03-29T03:12:22.282Z,6.43
2019-03-29T03:14:53.197Z,6.55
2019-03-29T03:17:24.157Z,6.60
2019-03-29T03:19:55.178Z,6.62
2019-03-29T03:22:26.223Z,6.64
2019-03-29T03:24:57.233Z,6.59
2019-03-29T03:27:28.268Z,6.60
2019-03-29T03:29:59.194Z,6.58
2019-03-29T03:32:30.191Z,6.55
2019-03-29T03:35:01.329Z,6.49
2019-03-29T03:37:32.293Z,6.45
2019-03-29T03:40:04.129Z,6.37
2019-03-29T03:42:35.133Z,6.32
2019-03-29T03:45:07.879Z,6.34
2019-03-29T03:47:39.956Z,6.31
2019-03-29T03:50:31.952Z,6.28
2019-03-29T03:53:02.992Z,6.28
2019-03-29T03:55:36.106Z,6.26
2019-03-29T03:58:07.874Z,6.22
2019-03-29T04:00:44.409Z,6.18
2019-03-29T04:03:15.559Z,6.20
2019-03-29T04:05:46.693Z,6.22
2019-03-29T04:08:21.316Z,6.26
2019-03-29T04:10:52.233Z,6.30
2019-03-29T04:13:23.352Z,6.31
2019-03-29T04:15:54.318Z,6.33
2019-03-29T04:18:25.265Z,6.43
2019-03-29T04:20:56.465Z,6.42
2019-03-29T04:23:27.507Z,6.46
2019-03-29T04:25:58.558Z,6.51
2019-03-29T04:28:29.492Z,6.58
2019-03-29T04:31:00.589Z,6.61
2019-03-29T04:33:31.520Z,6.65
2019-03-29T04:36:02.620Z,6.69
2019-03-29T04:38:33.592Z,6.74
2019-03-29T04:41:04.753Z,6.95
2019-03-29T04:43:35.869Z,7.02
2019-03-29T04:46:06.913Z,7.07
2019-03-29T04:48:37.917Z,7.12
2019-03-29T04:51:09.066Z,6.98
2019-03-29T04:53:40.112Z,6.83
2019-03-29T04:56:11.247Z,6.67
2019-03-29T04:58:42.215Z,6.58
2019-03-29T05:01:17.146Z,6.51
2019-03-29T05:03:46.241Z,6.48
2019-03-29T05:06:17.423Z,6.42
2019-03-29T05:08:48.467Z,6.38
2019-03-29T05:11:19.445Z,6.34
2019-03-29T05:13:50.583Z,6.34
2019-03-29T05:16:21.550Z,6.31
2019-03-29T05:18:52.470Z,6.32
2019-03-29T05:21:23.444Z,6.31
2019-03-29T05:23:54.443Z,6.23
2019-03-29T05:26:25.710Z,6.19
2019-03-29T05:28:56.834Z,6.17
2019-03-29T05:31:27.818Z,6.15
2019-03-29T05:33:58.780Z,6.22
2019-03-29T05:36:29.783Z,6.24
2019-03-29T05:39:00.767Z,6.29
2019-03-29T05:41:31.760Z,6.34
2019-03-29T05:44:04.321Z,6.47
2019-03-29T05:46:35.875Z,6.44
2019-03-29T05:49:06.863Z,6.44
2019-03-29T05:51:37.990Z,6.47
2019-03-29T05:54:09.092Z,6.50
2019-03-29T05:56:40.604Z,6.56
2019-03-29T05:59:13.186Z,6.58
2019-03-29T06:01:44.481Z,6.65
2019-03-29T06:04:18.097Z,6.57
2019-03-29T06:06:50.801Z,6.62
2019-03-29T06:09:21.859Z,6.91
2019-03-29T06:11:52.793Z,7.16
2019-03-29T06:14:23.938Z,7.47
2019-03-29T06:16:55.148Z,7.65
2019-03-29T06:19:26.293Z,7.82
2019-03-29T06:21:57.171Z,7.96
2019-03-29T06:24:28.161Z,8.13
2019-03-29T06:26:59.710Z,8.24
2019-03-29T06:29:30.707Z,8.38
2019-03-29T06:32:01.603Z,8.47
2019-03-29T06:34:32.541Z,8.57
2019-03-29T06:37:03.822Z,8.85
2019-03-29T06:39:34.895Z,9.17
2019-03-29T06:42:05.989Z,9.43
2019-03-29T06:44:36.991Z,9.52
2019-03-29T06:47:07.875Z,9.37
2019-03-29T06:49:38.857Z,9.32
2019-03-29T06:52:09.822Z,9.49
2019-03-29T06:54:40.964Z,9.65
2019-03-29T06:57:11.906Z,9.84
2019-03-29T06:59:42.790Z,9.99
2019-03-29T07:02:13.893Z,10.25
2019-03-29T07:04:44.723Z,10.40
2019-03-29T07:07:15.734Z,10.75
2019-03-29T07:09:46.705Z,10.89
2019-03-29T07:12:17.686Z,11.15
2019-03-29T07:14:48.627Z,11.12
2019-03-29T07:17:19.593Z,11.28
2019-03-29T07:19:50.889Z,11.40
2019-03-29T07:22:21.971Z,11.61
2019-03-29T07:24:53.299Z,11.78
2019-03-29T07:27:24.187Z,12.03
2019-03-29T07:29:55.209Z,12.30
2019-03-29T07:32:26.171Z,12.55
2019-03-29T07:34:57.321Z,12.73
2019-03-29T07:37:28.312Z,12.56
2019-03-29T07:39:59.172Z,12.92
2019-03-29T07:42:30.134Z,12.68
2019-03-29T07:45:01.037Z,12.43
2019-03-29T07:47:31.922Z,12.76
2019-03-29T07:50:02.937Z,12.69
2019-03-29T07:52:34.021Z,12.38
2019-03-29T07:55:06.922Z,12.61
2019-03-29T07:57:37.890Z,13.18
2019-03-29T08:00:09.337Z,13.66
2019-03-29T08:02:40.239Z,14.00
2019-03-29T08:05:11.310Z,14.04
2019-03-29T08:07:42.414Z,14.31
2019-03-29T08:10:24.039Z,14.73
2019-03-29T08:12:46.438Z,15.08
2019-03-29T08:15:17.378Z,14.99
2019-03-29T08:17:48.329Z,14.77
2019-03-29T08:20:43.912Z,15.42
2019-03-29T08:22:52.121Z,15.78
2019-03-29T08:25:23.402Z,15.69
2019-03-29T08:27:54.531Z,15.99
2019-03-29T08:30:25.483Z,15.89
2019-03-29T08:32:56.486Z,15.83
2019-03-29T08:35:27.452Z,16.14
2019-03-29T08:37:58.476Z,16.87
2019-03-29T08:40:29.550Z,17.11
2019-03-29T08:43:00.644Z,16.57
2019-03-29T08:45:31.618Z,16.13
2019-03-29T08:48:02.556Z,15.06
2019-03-29T08:50:33.625Z,14.78
2019-03-29T08:53:04.892Z,14.98
2019-03-29T08:55:45.758Z,15.22
2019-03-29T08:58:08.660Z,15.52
2019-03-29T09:00:39.702Z,15.34
2019-03-29T09:03:10.761Z,15.45
2019-03-29T09:05:42.117Z,15.93
2019-03-29T09:08:13.248Z,15.12
2019-03-29T09:10:44.330Z,14.28
2019-03-29T09:13:15.290Z,13.97
2019-03-29T09:15:46.352Z,14.24
2019-03-29T09:18:17.423Z,15.14
2019-03-29T09:20:48.554Z,16.71
2019-03-29T09:23:19.703Z,17.21
2019-03-29T09:25:50.740Z,17.15
2019-03-29T09:28:21.925Z,16.89
2019-03-29T09:30:56.222Z,16.72
2019-03-29T09:33:25.626Z,17.76
2019-03-29T09:35:56.648Z,17.38
2019-03-29T09:38:27.800Z,16.30
2019-03-29T09:40:59.372Z,16.89
2019-03-29T09:43:30.325Z,17.43
2019-03-29T09:46:03.319Z,18.12
2019-03-29T09:48:34.696Z,17.54
2019-03-29T09:51:06.070Z,18.15
2019-03-29T09:53:40.853Z,18.65
2019-03-29T09:56:10.022Z,18.04
2019-03-29T09:58:41.063Z,16.86
2019-03-29T10:01:12.068Z,17.25
2019-03-29T10:03:43.207Z,16.87
2019-03-29T10:06:15.411Z,16.28
2019-03-29T10:08:46.602Z,15.63
2019-03-29T10:11:17.455Z,15.54
2019-03-29T10:13:48.519Z,16.10
2019-03-29T10:16:19.578Z,17.42
2019-03-29T10:18:50.507Z,19.33
2019-03-29T10:21:21.663Z,20.33
2019-03-29T10:23:53.373Z,21.15
2019-03-29T10:26:24.332Z,20.93
2019-03-29T10:28:56.090Z,22.01
2019-03-29T10:31:32.400Z,21.14
2019-03-29T10:34:00.200Z,20.32
2019-03-29T10:36:31.159Z,20.33
2019-03-29T10:39:02.600Z,20.54
2019-03-29T10:41:34.463Z,21.20
2019-03-29T10:44:06.453Z,20.97
2019-03-29T10:46:37.467Z,21.91
2019-03-29T10:49:08.515Z,22.40
2019-03-29T10:51:39.663Z,21.49
2019-03-29T10:54:10.623Z,21.49
2019-03-29T10:56:41.815Z,22.64
2019-03-29T10:59:26.375Z,23.26
2019-03-29T11:01:45.507Z,21.30
2019-03-29T11:04:16.632Z,19.64
2019-03-29T11:06:47.671Z,17.68
2019-03-29T11:09:18.732Z,17.24
2019-03-29T11:11:49.734Z,17.46
2019-03-29T11:14:20.814Z,18.53
2019-03-29T11:16:51.806Z,16.56
2019-03-29T11:19:23.131Z,15.82
2019-03-29T11:21:54.368Z,16.40
2019-03-29T11:24:25.440Z,18.10
2019-03-29T11:26:56.496Z,20.55
2019-03-29T11:29:27.711Z,21.37
2019-03-29T11:31:58.678Z,18.09
2019-03-29T11:34:29.721Z,19.13
2019-03-29T11:37:00.938Z,20.06
2019-03-29T11:39:31.945Z,20.77
2019-03-29T11:42:03.582Z,20.33
2019-03-29T11:44:34.808Z,19.61
2019-03-29T11:47:06.262Z,20.98
2019-03-29T11:49:37.351Z,21.85
2019-03-29T11:52:08.543Z,22.64
2019-03-29T11:54:39.897Z,23.37
2019-03-29T11:57:10.825Z,23.41
2019-03-29T11:59:41.827Z,24.45
2019-03-29T12:02:12.796Z,25.32
2019-03-29T12:04:43.776Z,22.17
2019-03-29T12:07:14.814Z,21.23
2019-03-29T12:09:45.796Z,20.60
2019-03-29T12:12:16.670Z,20.88
2019-03-29T12:14:47.757Z,21.82
2019-03-29T12:17:18.822Z,23.18
2019-03-29T12:19:49.818Z,21.59
2019-03-29T12:22:20.854Z,22.28
2019-03-29T12:24:52.087Z,22.59
2019-03-29T12:27:23.323Z,23.36
2019-03-29T12:29:54.584Z,24.89
2019-03-29T12:32:25.723Z,25.48
2019-03-29T12:34:56.726Z,26.03
2019-03-29T12:37:28.345Z,23.82
2019-03-29T12:39:59.500Z,20.93
2019-03-29T12:42:33.945Z,22.13
2019-03-29T12:45:07.740Z,21.76
2019-03-29T12:47:38.689Z,23.32
2019-03-29T12:50:10.008Z,23.62
2019-03-29T12:52:41.022Z,22.70
2019-03-29T12:55:12.550Z,24.02
2019-03-29T12:57:44.018Z,24.50
2019-03-29T13:00:15.759Z,23.96
2019-03-29T13:02:46.842Z,23.29
2019-03-29T13:05:18.541Z,23.80
2019-03-29T13:07:52.907Z,24.75
2019-03-29T13:10:23.221Z,25.22
2019-03-29T13:12:54.299Z,23.90
2019-03-29T13:15:27.251Z,23.56
2019-03-29T13:17:58.317Z,22.96
2019-03-29T13:20:32.105Z,22.57
2019-03-29T13:23:03.171Z,22.10
2019-03-29T13:25:34.415Z,22.10
2019-03-29T13:28:05.602Z,23.84
2019-03-29T13:30:40.112Z,25.31
2019-03-29T13:33:13.295Z,25.64
2019-03-29T13:35:47.188Z,26.58
2019-03-29T13:38:20.441Z,24.65
2019-03-29T13:40:50.883Z,24.99
2019-03-29T13:43:21.906Z,24.87
2019-03-29T13:45:53.029Z,23.26
2019-03-29T13:48:24.125Z,23.29
2019-03-29T13:50:55.378Z,23.13
2019-03-29T13:53:26.421Z,23.68
2019-03-29T13:55:57.413Z,24.58
2019-03-29T13:58:28.403Z,24.79
2019-03-29T14:00:59.720Z,24.59
2019-03-29T14:03:31.449Z,25.11
2019-03-29T14:06:02.713Z,26.19
2019-03-29T14:08:33.833Z,26.19
2019-03-29T14:11:05.008Z,26.60
2019-03-29T14:13:36.216Z,26.75
2019-03-29T14:16:07.501Z,25.55
2019-03-29T14:18:38.676Z,24.80
2019-03-29T14:21:09.811Z,22.03
2019-03-29T14:23:40.951Z,22.03
2019-03-29T14:26:11.948Z,21.40
2019-03-29T14:28:43.017Z,21.50
2019-03-29T14:31:14.237Z,22.10
2019-03-29T14:33:45.519Z,22.69
2019-03-29T14:36:16.816Z,23.11
2019-03-29T14:38:48.491Z,23.88
2019-03-29T14:41:19.447Z,24.18
2019-03-29T14:43:52.309Z,24.75
2019-03-29T14:46:23.478Z,23.13
2019-03-29T14:48:54.597Z,23.82
2019-03-29T14:51:25.856Z,22.71
2019-03-29T14:53:57.219Z,21.39
2019-03-29T14:56:28.931Z,21.90
2019-03-29T14:58:59.970Z,22.33
2019-03-29T15:01:30.959Z,22.41
2019-03-29T15:04:02.066Z,23.02
2019-03-29T15:06:33.244Z,23.24
2019-03-29T15:09:06.501Z,24.02
2019-03-29T15:11:37.575Z,22.74
2019-03-29T15:14:09.053Z,22.85
2019-03-29T15:16:40.024Z,23.04
2019-03-29T15:19:10.964Z,23.46
2019-03-29T15:21:41.924Z,23.35
2019-03-29T15:24:12.917Z,22.52
2019-03-29T15:26:44.436Z,22.58
2019-03-29T15:29:15.848Z,22.26
2019-03-29T15:31:46.884Z,22.81
2019-03-29T15:34:20.586Z,23.11
2019-03-29T15:36:53.133Z,22.91
2019-03-29T15:39:24.145Z,22.27
2019-03-29T15:41:55.255Z,22.49
2019-03-29T15:44:27.790Z,22.67
2019-03-29T15:46:58.825Z,23.01
2019-03-29T15:49:29.877Z,23.19
2019-03-29T15:52:00.779Z,21.33
2019-03-29T15:54:32.487Z,20.56
2019-03-29T15:57:04.018Z,20.54
2019-03-29T15:59:35.048Z,20.51
2019-03-29T16:02:05.956Z,19.99
2019-03-29T16:04:37.015Z,20.05
2019-03-29T16:07:08.099Z,20.70
2019-03-29T16:09:39.442Z,21.30
2019-03-29T16:12:10.954Z,21.64
2019-03-29T16:14:42.057Z,21.82
2019-03-29T16:17:14.836Z,20.86
2019-03-29T16:19:46.836Z,20.20
2019-03-29T16:22:17.993Z,19.54
2019-03-29T16:24:49.061Z,19.39
2019-03-29T16:27:20.113Z,19.26
2019-03-29T16:29:51.124Z,19.20
2019-03-29T16:32:22.360Z,18.56
2019-03-29T16:34:53.354Z,18.73
2019-03-29T16:37:24.682Z,19.32
2019-03-29T16:39:55.627Z,19.63
2019-03-29T16:42:26.575Z,19.92
2019-03-29T16:44:57.793Z,19.89
2019-03-29T16:47:29.534Z,19.13
2019-03-29T16:50:01.468Z,18.99
2019-03-29T16:52:32.563Z,18.76
2019-03-29T16:55:14.311Z,18.35
2019-03-29T16:57:45.753Z,18.10
2019-03-29T17:00:20.002Z,18.08
2019-03-29T17:02:51.038Z,17.92
2019-03-29T17:05:22.184Z,17.62
2019-03-29T17:07:53.432Z,17.34
2019-03-29T17:10:24.756Z,17.09
2019-03-29T17:12:55.767Z,16.99
2019-03-29T17:15:26.907Z,16.90
2019-03-29T17:17:57.922Z,16.73
2019-03-29T17:20:29.150Z,16.45
2019-03-29T17:23:01.897Z,16.21
2019-03-29T17:25:33.026Z,15.98
2019-03-29T17:28:04.122Z,15.75
2019-03-29T17:30:38.242Z,15.52
2019-03-29T17:33:09.196Z,15.35
2019-03-29T17:35:40.166Z,15.17
2019-03-29T17:41:03.142Z,14.81
2019-03-29T17:43:34.688Z,14.59
2019-03-29T17:46:16.143Z,14.43
2019-03-29T17:48:39.551Z,14.35
2019-03-29T17:51:10.572Z,14.21
2019-03-29T17:53:41.701Z,14.06
2019-03-29T17:56:12.690Z,13.94
2019-03-29T17:58:43.737Z,13.79
2019-03-29T18:01:14.679Z,13.61
2019-03-29T18:03:45.652Z,13.50
2019-03-29T18:06:16.730Z,13.34
2019-03-29T18:08:47.682Z,13.13
2019-03-29T18:11:18.801Z,13.08
2019-03-29T18:13:50.038Z,13.00
2019-03-29T18:16:30.651Z,12.98
2019-03-29T18:18:53.904Z,12.84
2019-03-29T18:21:25.035Z,12.73
2019-03-29T18:23:56.131Z,12.65
2019-03-29T18:26:27.100Z,12.47
2019-03-29T18:28:58.260Z,12.39
2019-03-29T18:31:29.251Z,12.31
2019-03-29T18:34:00.893Z,12.21
2019-03-29T18:36:32.301Z,12.11
2019-03-29T18:39:04.530Z,11.92
2019-03-29T18:41:35.609Z,11.78
2019-03-29T18:44:06.613Z,11.71
2019-03-29T18:46:44.490Z,11.62
2019-03-29T18:49:10.585Z,11.56
2019-03-29T18:51:41.642Z,11.49
2019-03-29T18:54:12.623Z,11.43
2019-03-29T18:56:43.578Z,11.30
2019-03-29T18:59:14.612Z,11.14
2019-03-29T19:01:45.766Z,11.07
2019-03-29T19:04:16.764Z,11.17
2019-03-29T19:06:48.229Z,11.18
2019-03-29T19:09:19.412Z,11.21
2019-03-29T19:11:50.571Z,11.11
2019-03-29T19:14:21.629Z,10.94
2019-03-29T19:16:58.836Z,10.86
2019-03-29T19:19:25.165Z,10.73
2019-03-29T19:21:56.272Z,10.64
2019-03-29T19:24:28.287Z,10.69
2019-03-29T19:26:59.303Z,10.65
2019-03-29T19:29:30.224Z,10.61
2019-03-29T19:32:01.216Z,10.52
2019-03-29T19:34:32.175Z,10.23
2019-03-29T19:37:03.304Z,10.07
2019-03-29T19:39:34.339Z,9.95
2019-03-29T19:42:05.376Z,10.01
2019-03-29T19:44:36.357Z,10.07
2019-03-29T19:47:13.234Z,10.08
2019-03-29T19:49:40.030Z,9.93
2019-03-29T19:52:11.081Z,9.82
2019-03-29T19:54:42.199Z,9.69
2019-03-29T19:57:13.391Z,9.45
2019-03-29T19:59:47.930Z,9.26
2019-03-29T20:02:17.339Z,9.08
2019-03-29T20:04:48.413Z,8.92
2019-03-29T20:07:20.440Z,8.84
2019-03-29T20:09:51.691Z,8.91
2019-03-29T20:12:25.190Z,8.88
2019-03-29T20:14:55.280Z,8.80
2019-03-29T20:17:27.597Z,8.74
2019-03-29T20:19:58.948Z,8.66
2019-03-29T20:22:29.871Z,8.63
2019-03-29T20:25:01.061Z,8.66
2019-03-29T20:27:32.215Z,8.63
2019-03-29T20:30:12.223Z,8.59
2019-03-29T20:32:43.154Z,8.35
2019-03-29T20:35:14.400Z,8.25
2019-03-29T20:37:45.508Z,8.20
2019-03-29T20:40:16.544Z,8.14
2019-03-29T20:42:47.662Z,8.11
2019-03-29T20:45:18.827Z,8.02
2019-03-29T20:47:51.991Z,7.91
2019-03-29T20:50:23.114Z,7.85
2019-03-29T20:52:54.254Z,7.83
2019-03-29T20:55:25.705Z,7.74
2019-03-29T20:57:56.903Z,7.69
2019-03-29T21:00:27.870Z,7.70
2019-03-29T21:02:59.241Z,7.55
2019-03-29T21:05:30.318Z,7.44
2019-03-29T21:08:05.457Z,7.42
2019-03-29T21:10:36.424Z,7.34
2019-03-29T21:13:09.569Z,7.29
2019-03-29T21:15:42.442Z,7.28
2019-03-29T21:18:17.310Z,7.18
2019-03-29T21:20:47.544Z,7.11
2019-03-29T21:23:18.473Z,7.08
2019-03-29T21:25:49.440Z,7.05
2019-03-29T21:28:20.341Z,6.98
2019-03-29T21:30:51.299Z,6.96
2019-03-29T21:33:22.237Z,6.86
2019-03-29T21:35:53.313Z,6.88
2019-03-29T21:38:25.316Z,6.76
2019-03-29T21:40:56.390Z,6.69
2019-03-29T21:43:27.346Z,6.67
2019-03-29T21:45:58.444Z,6.68
2019-03-29T21:48:29.623Z,6.57
2019-03-29T21:51:00.606Z,6.57
2019-03-29T21:53:31.633Z,6.70
2019-03-29T21:56:03.914Z,6.74
2019-03-29T21:58:36.681Z,6.57
2019-03-29T22:01:08.444Z,6.37
2019-03-29T22:03:39.462Z,6.31
2019-03-29T22:06:10.526Z,6.36
2019-03-29T22:08:41.500Z,6.33
2019-03-29T22:11:12.463Z,6.32
2019-03-29T22:13:43.457Z,6.35
2019-03-29T22:16:14.597Z,6.43
2019-03-29T22:18:45.693Z,6.41
2019-03-29T22:21:16.713Z,6.23
2019-03-29T22:23:47.709Z,6.09
2019-03-29T22:26:18.751Z,5.91
2019-03-29T22:28:51.367Z,5.74
2019-03-29T22:31:23.756Z,5.69
2019-03-29T22:33:57.033Z,5.59
2019-03-29T22:36:28.082Z,5.48
2019-03-29T22:38:58.945Z,5.44
2019-03-29T22:41:29.911Z,5.46
2019-03-29T22:44:00.910Z,5.42
2019-03-29T22:46:31.865Z,5.42
2019-03-29T22:49:02.771Z,5.33
2019-03-29T22:51:33.783Z,5.26
2019-03-29T22:54:04.815Z,5.17
2019-03-29T22:56:35.853Z,5.12
2019-03-29T22:59:06.889Z,5.17
2019-03-29T23:01:40.917Z,5.12
2019-03-29T23:04:11.953Z,5.07
2019-03-29T23:06:43.005Z,4.99
2019-03-29T23:09:14.036Z,4.93
2019-03-29T23:11:44.916Z,4.85
2019-03-29T23:14:15.803Z,4.74
2019-03-29T23:16:46.757Z,4.72
2019-03-29T23:19:17.786Z,4.69
2019-03-29T23:21:48.671Z,4.67
2019-03-29T23:24:19.567Z,4.57
2019-03-29T23:26:50.552Z,4.58
2019-03-29T23:29:21.649Z,4.52
2019-03-29T23:31:52.627Z,4.46
2019-03-29T23:34:23.729Z,4.45
2019-03-29T23:36:54.727Z,4.43
2019-03-29T23:39:25.816Z,4.39
2019-03-29T23:41:56.864Z,4.40
2019-03-29T23:44:27.854Z,4.33
2019-03-29T23:46:58.980Z,4.34
2019-03-29T23:49:30.119Z,4.31
2019-03-29T23:52:01.125Z,4.27
2019-03-29T23:54:32.068Z,4.18
2019-03-29T23:57:03.137Z,4.18
2019-03-29T23:59:34.039Z,4.16
